createdAt,value
2023-05-14T00:01:11.260Z,59.74
2023-05-14T00:03:39.972Z,60.05
2023-05-14T00:06:08.135Z,59.65
2023-05-14T00:08:35.085Z,60.05
2023-05-14T00:11:02.363Z,60.07
2023-05-14T00:13:29.474Z,60.06
2023-05-14T00:15:56.442Z,59.93
2023-05-14T00:18:23.313Z,59.59
2023-05-14T00:20:54.627Z,59.33
2023-05-14T00:23:24.069Z,59.68
2023-05-14T00:25:51.015Z,59.54
2023-05-14T00:28:18.010Z,59.28
2023-05-14T00:30:45.132Z,59.47
2023-05-14T00:33:12.201Z,59.60
2023-05-14T00:35:39.218Z,59.58
2023-05-14T00:38:06.481Z,59.58
2023-05-14T00:40:34.093Z,59.26
2023-05-14T00:43:01.559Z,59.19
2023-05-14T00:45:28.773Z,59.54
2023-05-14T00:47:55.908Z,59.40
2023-05-14T00:50:23.351Z,59.60
2023-05-14T00:52:50.878Z,59.89
2023-05-14T00:55:19.070Z,59.80
2023-05-14T00:57:47.200Z,60.10
2023-05-14T01:00:14.417Z,59.96
2023-05-14T01:02:41.628Z,59.74
2023-05-14T01:05:09.277Z,59.40
2023-05-14T01:08:09.378Z,59.97
2023-05-14T01:10:50.706Z,59.82
2023-05-14T01:13:33.047Z,59.98
2023-05-14T01:16:02.524Z,59.77
2023-05-14T01:18:30.081Z,60.31
2023-05-14T01:20:57.113Z,60.90
2023-05-14T01:23:24.014Z,61.32
2023-05-14T01:25:50.967Z,61.02
2023-05-14T01:28:20.648Z,61.06
2023-05-14T01:31:06.137Z,61.44
2023-05-14T01:33:35.122Z,62.02
2023-05-14T01:36:02.708Z,61.65
2023-05-14T01:38:31.778Z,61.37
2023-05-14T01:41:00.799Z,61.50
2023-05-14T01:43:28.588Z,61.55
2023-05-14T01:45:55.872Z,61.70
2023-05-14T01:48:22.908Z,61.49
2023-05-14T01:50:50.036Z,62.19
2023-05-14T01:53:16.982Z,61.58
2023-05-14T01:55:44.034Z,61.51
2023-05-14T01:58:11.186Z,61.56
2023-05-14T02:00:38.509Z,61.36
2023-05-14T02:03:05.518Z,61.80
2023-05-14T02:05:32.883Z,63.18
2023-05-14T02:07:59.807Z,63.76
2023-05-14T02:10:26.906Z,63.81
2023-05-14T02:12:53.818Z,64.55
2023-05-14T02:15:20.907Z,65.47
2023-05-14T02:17:48.412Z,65.20
2023-05-14T02:20:15.772Z,64.81
2023-05-14T02:22:49.812Z,65.39
2023-05-14T02:25:16.933Z,65.94
2023-05-14T02:27:43.980Z,66.66
2023-05-14T02:30:11.857Z,65.91
2023-05-14T02:32:39.696Z,67.30
2023-05-14T02:35:07.334Z,68.55
2023-05-14T02:37:34.876Z,69.08
2023-05-14T02:40:01.878Z,68.76
2023-05-14T02:42:32.572Z,67.80
2023-05-14T02:44:59.783Z,67.09
2023-05-14T02:47:27.200Z,67.34
2023-05-14T02:49:54.336Z,66.27
2023-05-14T02:52:21.266Z,65.75
2023-05-14T02:54:48.368Z,64.67
2023-05-14T02:57:15.381Z,66.12
2023-05-14T02:59:42.602Z,64.52
2023-05-14T03:02:10.017Z,63.82
2023-05-14T03:04:37.721Z,63.31
2023-05-14T03:07:04.758Z,63.80
2023-05-14T03:09:31.774Z,63.80
2023-05-14T03:11:58.716Z,63.55
2023-05-14T03:14:25.726Z,63.16
2023-05-14T03:16:52.724Z,63.67
2023-05-14T03:19:19.870Z,64.01
2023-05-14T03:21:46.781Z,63.99
2023-05-14T03:24:13.744Z,64.91
2023-05-14T03:26:41.209Z,64.70
2023-05-14T03:29:08.398Z,65.49
2023-05-14T03:31:35.539Z,66.80
2023-05-14T03:34:02.849Z,66.91
2023-05-14T03:36:29.842Z,68.53
2023-05-14T03:38:56.800Z,69.92
2023-05-14T03:41:23.688Z,71.46
2023-05-14T03:43:50.625Z,71.27
2023-05-14T03:46:17.561Z,71.41
2023-05-14T03:48:44.684Z,72.56
2023-05-14T03:51:12.686Z,73.44
2023-05-14T03:53:39.707Z,72.59
2023-05-14T03:56:07.297Z,72.07
2023-05-14T03:58:34.182Z,71.65
2023-05-14T04:01:01.234Z,70.50
2023-05-14T04:03:28.496Z,69.83
2023-05-14T04:05:57.374Z,70.40
2023-05-14T04:08:24.326Z,68.56
2023-05-14T04:10:51.638Z,69.32
2023-05-14T04:13:18.578Z,69.34
2023-05-14T04:15:45.710Z,67.74
2023-05-14T04:18:14.078Z,67.64
2023-05-14T04:20:41.267Z,67.16
2023-05-14T04:23:08.445Z,66.27
2023-05-14T04:25:35.481Z,66.95
2023-05-14T04:28:02.642Z,66.87
2023-05-14T04:30:29.738Z,66.58
2023-05-14T04:32:57.059Z,66.94
2023-05-14T04:35:25.330Z,66.98
2023-05-14T04:37:52.446Z,66.85
2023-05-14T04:40:19.364Z,66.85
2023-05-14T04:42:47.778Z,66.30
2023-05-14T04:45:14.759Z,68.52
2023-05-14T04:47:41.860Z,69.29
2023-05-14T04:50:09.804Z,69.18
2023-05-14T04:52:38.758Z,69.04
2023-05-14T04:55:06.517Z,71.36
2023-05-14T04:57:33.440Z,71.84
2023-05-14T05:00:00.468Z,71.77
2023-05-14T05:02:27.567Z,72.95
2023-05-14T05:04:54.435Z,74.19
2023-05-14T05:07:21.525Z,75.28
2023-05-14T05:09:48.374Z,76.61
2023-05-14T05:12:15.403Z,78.81
2023-05-14T05:14:42.270Z,77.87
2023-05-14T05:17:09.232Z,78.18
2023-05-14T05:19:43.763Z,80.25
2023-05-14T05:22:11.781Z,81.72
2023-05-14T05:24:38.750Z,82.58
2023-05-14T05:27:06.138Z,83.43
2023-05-14T05:29:33.564Z,86.59
2023-05-14T05:32:01.068Z,87.14
2023-05-14T05:34:28.091Z,88.48
2023-05-14T05:36:55.054Z,90.43
2023-05-14T05:39:21.968Z,91.26
2023-05-14T05:41:48.953Z,92.19
2023-05-14T05:44:15.804Z,93.79
2023-05-14T05:46:42.822Z,93.38
2023-05-14T05:49:09.728Z,94.19
2023-05-14T05:51:36.640Z,95.42
2023-05-14T05:54:03.778Z,96.57
2023-05-14T05:56:30.912Z,96.66
2023-05-14T05:58:57.778Z,97.33
2023-05-14T06:01:24.807Z,97.50
2023-05-14T06:03:51.706Z,97.57
2023-05-14T06:06:19.024Z,97.93
2023-05-14T06:08:46.037Z,98.39
2023-05-14T06:11:12.909Z,98.36
2023-05-14T06:13:39.856Z,98.08
2023-05-14T06:16:06.920Z,97.08
2023-05-14T06:18:33.972Z,97.80
2023-05-14T06:21:00.930Z,97.89
2023-05-14T06:23:28.171Z,97.67
2023-05-14T06:25:55.061Z,98.06
2023-05-14T06:28:22.162Z,97.78
2023-05-14T06:30:54.069Z,96.69
2023-05-14T06:33:29.625Z,95.59
2023-05-14T06:36:05.848Z,95.41
2023-05-14T06:38:32.845Z,97.62
2023-05-14T06:40:59.694Z,97.23
2023-05-14T06:43:26.727Z,98.47
2023-05-14T06:45:53.769Z,98.37
2023-05-14T06:48:21.465Z,99.47
2023-05-14T06:50:49.493Z,99.38
2023-05-14T06:53:16.702Z,100.00
2023-05-14T06:55:43.933Z,100.00
2023-05-14T06:58:12.032Z,100.00
2023-05-14T07:00:38.895Z,100.00
2023-05-14T07:03:06.059Z,100.00
2023-05-14T07:05:32.987Z,100.00
2023-05-14T07:07:59.831Z,100.00
2023-05-14T07:10:26.856Z,100.00
2023-05-14T07:12:53.897Z,100.00
2023-05-14T07:15:21.236Z,99.77
2023-05-14T07:17:48.181Z,100.00
2023-05-14T07:20:15.217Z,100.00
2023-05-14T07:22:42.128Z,100.00
2023-05-14T07:25:09.353Z,100.00
2023-05-14T07:27:36.346Z,100.00
2023-05-14T07:30:03.653Z,100.00
2023-05-14T07:32:32.532Z,100.00
2023-05-14T07:34:59.472Z,100.00
2023-05-14T07:37:26.472Z,100.00
2023-05-14T07:39:53.823Z,100.00
2023-05-14T07:42:32.224Z,100.00
2023-05-14T07:45:02.011Z,100.00
2023-05-14T07:47:32.189Z,100.00
2023-05-14T07:49:59.427Z,100.00
2023-05-14T07:52:26.777Z,100.00
2023-05-14T07:54:53.833Z,100.00
2023-05-14T07:57:20.957Z,100.00
2023-05-14T07:59:48.615Z,100.00
2023-05-14T08:02:17.091Z,100.00
2023-05-14T08:04:44.938Z,100.00
2023-05-14T08:07:11.929Z,100.00
2023-05-14T08:09:38.819Z,100.00
2023-05-14T08:12:08.627Z,100.00
2023-05-14T08:14:35.670Z,100.00
2023-05-14T08:17:04.544Z,99.55
2023-05-14T08:19:31.621Z,99.21
2023-05-14T08:21:58.467Z,100.00
2023-05-14T08:24:25.375Z,100.00
2023-05-14T08:26:53.143Z,100.00
2023-05-14T08:29:20.108Z,99.38
2023-05-14T08:31:47.372Z,99.39
2023-05-14T08:34:14.605Z,98.18
2023-05-14T08:36:41.567Z,98.01
2023-05-14T08:39:27.067Z,98.86
2023-05-14T08:41:55.300Z,99.14
2023-05-14T08:44:35.448Z,98.85
2023-05-14T08:47:02.567Z,98.25
2023-05-14T08:49:37.306Z,97.24
2023-05-14T08:52:04.810Z,97.58
2023-05-14T08:54:32.589Z,98.57
2023-05-14T08:56:59.803Z,98.83
2023-05-14T08:59:27.214Z,97.28
2023-05-14T09:01:56.365Z,96.68
2023-05-14T09:04:24.973Z,97.22
2023-05-14T09:06:54.026Z,96.04
2023-05-14T09:09:22.651Z,96.55
2023-05-14T09:11:51.615Z,96.33
2023-05-14T09:14:18.541Z,96.54
2023-05-14T09:16:47.739Z,95.15
2023-05-14T09:19:15.734Z,96.90
2023-05-14T09:21:45.724Z,97.01
2023-05-14T09:24:24.001Z,95.46
2023-05-14T09:26:53.171Z,95.62
2023-05-14T09:29:20.876Z,95.84
2023-05-14T09:31:51.856Z,96.41
2023-05-14T09:34:30.700Z,94.74
2023-05-14T09:37:08.525Z,94.76
2023-05-14T09:39:37.293Z,94.45
2023-05-14T09:42:04.710Z,96.31
2023-05-14T09:44:32.254Z,96.87
2023-05-14T09:46:59.505Z,98.06
2023-05-14T09:49:27.025Z,95.99
2023-05-14T09:51:53.948Z,97.31
2023-05-14T09:54:21.031Z,97.49
2023-05-14T09:56:48.014Z,96.41
2023-05-14T09:59:15.257Z,95.98
2023-05-14T10:01:43.610Z,95.83
2023-05-14T10:04:11.961Z,96.25
2023-05-14T10:06:39.914Z,97.04
2023-05-14T10:09:16.199Z,98.40
2023-05-14T10:11:45.095Z,99.06
2023-05-14T10:14:20.889Z,98.71
2023-05-14T10:16:50.618Z,98.89
2023-05-14T10:19:21.518Z,99.02
2023-05-14T10:21:55.815Z,100.00
2023-05-14T10:24:24.547Z,100.00
2023-05-14T10:26:52.144Z,100.00
2023-05-14T10:29:19.074Z,100.00
2023-05-14T10:31:55.682Z,100.00
2023-05-14T10:34:43.855Z,100.00
2023-05-14T10:37:12.525Z,100.00
2023-05-14T10:39:54.232Z,100.00
2023-05-14T10:42:29.689Z,100.00
2023-05-14T10:44:59.715Z,100.00
2023-05-14T10:47:27.517Z,100.00
2023-05-14T10:49:56.927Z,100.00
2023-05-14T10:52:24.897Z,100.00
2023-05-14T10:55:03.632Z,100.00
2023-05-14T10:57:32.602Z,100.00
2023-05-14T11:00:01.295Z,100.00
2023-05-14T11:02:37.015Z,100.00
2023-05-14T11:05:10.525Z,100.00
2023-05-14T11:07:46.736Z,100.00
2023-05-14T11:10:19.218Z,100.00
2023-05-14T11:12:48.926Z,100.00
2023-05-14T11:15:16.762Z,100.00
2023-05-14T11:17:45.428Z,100.00
2023-05-14T11:20:13.455Z,100.00
2023-05-14T11:22:42.399Z,99.44
2023-05-14T11:25:14.710Z,97.94
2023-05-14T11:27:44.319Z,97.87
2023-05-14T11:30:20.117Z,97.41
2023-05-14T11:32:48.926Z,97.55
2023-05-14T11:35:17.798Z,99.20
2023-05-14T11:37:54.144Z,95.65
2023-05-14T11:40:21.199Z,94.48
2023-05-14T11:42:51.383Z,94.65
2023-05-14T11:45:29.942Z,94.30
2023-05-14T11:47:57.418Z,96.00
2023-05-14T11:50:24.586Z,95.59
2023-05-14T11:52:56.800Z,94.33
2023-05-14T11:55:23.909Z,91.87
2023-05-14T11:57:51.514Z,92.24
2023-05-14T12:00:21.911Z,90.20
2023-05-14T12:02:49.992Z,91.11
2023-05-14T12:05:17.761Z,90.37
2023-05-14T12:07:46.002Z,90.87
2023-05-14T12:10:13.973Z,90.42
2023-05-14T12:12:45.028Z,89.17
2023-05-14T12:15:13.570Z,88.14
2023-05-14T12:17:41.241Z,88.03
2023-05-14T12:20:10.668Z,87.15
2023-05-14T12:22:37.768Z,88.62
2023-05-14T12:25:05.070Z,87.16
2023-05-14T12:27:32.105Z,86.94
2023-05-14T12:32:39.449Z,88.83
2023-05-14T12:35:07.054Z,86.94
2023-05-14T12:37:36.168Z,84.14
2023-05-14T12:40:09.661Z,85.64
2023-05-14T12:42:37.039Z,86.01
2023-05-14T12:45:07.362Z,86.60
2023-05-14T12:47:35.018Z,88.43
2023-05-14T12:50:02.634Z,89.63
2023-05-14T12:52:38.815Z,87.70
2023-05-14T12:55:08.810Z,89.06
2023-05-14T12:57:36.055Z,89.45
2023-05-14T13:00:07.139Z,90.03
2023-05-14T13:02:42.873Z,88.70
2023-05-14T13:05:11.987Z,88.50
2023-05-14T13:07:39.087Z,90.39
2023-05-14T13:10:06.935Z,92.33
2023-05-14T13:12:34.182Z,91.73
2023-05-14T13:15:01.148Z,91.36
2023-05-14T13:17:29.194Z,92.99
2023-05-14T13:19:56.072Z,93.52
2023-05-14T13:22:23.151Z,94.60
2023-05-14T13:24:50.101Z,93.48
2023-05-14T13:27:17.001Z,94.31
2023-05-14T13:29:44.084Z,94.14
2023-05-14T13:32:11.309Z,93.39
2023-05-14T13:34:38.275Z,93.96
2023-05-14T13:37:05.344Z,93.94
2023-05-14T13:39:33.135Z,94.20
2023-05-14T13:42:01.580Z,94.82
2023-05-14T13:44:29.815Z,93.75
2023-05-14T13:46:59.584Z,92.06
2023-05-14T13:49:27.368Z,93.15
2023-05-14T13:51:54.531Z,92.34
2023-05-14T13:54:22.310Z,91.80
2023-05-14T13:56:51.359Z,94.39
2023-05-14T13:59:18.760Z,92.63
2023-05-14T14:01:45.771Z,92.81
2023-05-14T14:04:17.703Z,94.65
2023-05-14T14:06:48.083Z,94.28
2023-05-14T14:09:17.111Z,94.65
2023-05-14T14:11:44.928Z,94.28
2023-05-14T14:14:12.356Z,94.61
2023-05-14T14:16:40.832Z,96.38
2023-05-14T14:19:08.497Z,95.87
2023-05-14T14:21:36.043Z,96.04
2023-05-14T14:24:03.083Z,96.43
2023-05-14T14:26:30.043Z,97.18
2023-05-14T14:28:56.994Z,98.03
2023-05-14T14:31:24.093Z,97.46
2023-05-14T14:33:51.293Z,99.00
2023-05-14T14:36:18.179Z,99.71
2023-05-14T14:38:45.241Z,98.82
2023-05-14T14:41:12.179Z,98.63
2023-05-14T14:43:40.414Z,98.49
2023-05-14T14:46:09.204Z,99.41
2023-05-14T14:48:40.024Z,98.96
2023-05-14T14:51:11.732Z,100.00
2023-05-14T14:53:40.401Z,99.06
2023-05-14T14:56:08.566Z,99.39
2023-05-14T14:58:35.669Z,99.40
2023-05-14T15:01:02.603Z,98.96
2023-05-14T15:03:29.974Z,100.00
2023-05-14T15:05:57.503Z,100.00
2023-05-14T15:08:28.819Z,100.00
2023-05-14T15:10:56.661Z,100.00
2023-05-14T15:13:25.089Z,100.00
2023-05-14T15:15:52.796Z,100.00
2023-05-14T15:18:20.246Z,100.00
2023-05-14T15:20:47.393Z,100.00
2023-05-14T15:23:14.498Z,100.00
2023-05-14T15:25:41.450Z,100.00
2023-05-14T15:28:08.403Z,100.00
2023-05-14T15:30:35.585Z,100.00
2023-05-14T15:33:02.960Z,100.00
2023-05-14T15:35:30.360Z,100.00
2023-05-14T15:37:57.478Z,100.00
2023-05-14T15:40:24.803Z,100.00
2023-05-14T15:42:52.116Z,100.00
2023-05-14T15:45:19.228Z,100.00
2023-05-14T15:47:46.303Z,100.00
2023-05-14T15:50:13.269Z,100.00
2023-05-14T15:52:41.599Z,100.00
2023-05-14T15:55:08.992Z,100.00
2023-05-14T15:57:36.115Z,100.00
2023-05-14T16:00:12.889Z,100.00
2023-05-14T16:02:40.118Z,100.00
2023-05-14T16:05:08.612Z,100.00
2023-05-14T16:07:36.486Z,100.00
2023-05-14T16:10:03.746Z,100.00
2023-05-14T16:12:32.645Z,100.00
2023-05-14T16:15:00.051Z,100.00
2023-05-14T16:17:28.459Z,100.00
2023-05-14T16:19:56.484Z,100.00
2023-05-14T16:22:23.708Z,100.00
2023-05-14T16:24:51.074Z,100.00
2023-05-14T16:27:19.214Z,100.00
2023-05-14T16:29:46.227Z,100.00
2023-05-14T16:32:13.436Z,100.00
2023-05-14T16:34:40.739Z,100.00
2023-05-14T16:37:08.174Z,100.00
2023-05-14T16:39:35.054Z,100.00
2023-05-14T16:42:02.118Z,100.00
2023-05-14T16:44:28.968Z,100.00
2023-05-14T16:46:56.363Z,100.00
2023-05-14T16:49:23.298Z,100.00
2023-05-14T16:51:50.395Z,100.00
2023-05-14T16:54:17.288Z,100.00
2023-05-14T16:56:48.180Z,100.00
2023-05-14T16:59:16.301Z,100.00
2023-05-14T17:01:44.333Z,100.00
2023-05-14T17:04:11.445Z,100.00
2023-05-14T17:06:38.367Z,100.00
2023-05-14T17:09:05.554Z,100.00
2023-05-14T17:11:32.601Z,100.00
2023-05-14T17:13:59.559Z,100.00
2023-05-14T17:16:27.197Z,100.00
2023-05-14T17:18:54.229Z,100.00
2023-05-14T17:21:21.237Z,100.00
2023-05-14T17:23:48.232Z,100.00
2023-05-14T17:26:15.329Z,100.00
2023-05-14T17:28:42.515Z,100.00
2023-05-14T17:31:09.459Z,100.00
2023-05-14T17:33:36.488Z,100.00
2023-05-14T17:36:03.665Z,100.00
2023-05-14T17:38:31.014Z,100.00
2023-05-14T17:40:57.949Z,100.00
2023-05-14T17:43:24.882Z,100.00
2023-05-14T17:45:54.517Z,100.00
2023-05-14T17:48:23.109Z,100.00
2023-05-14T17:50:51.800Z,100.00
2023-05-14T17:53:18.865Z,100.00
2023-05-14T17:55:45.914Z,100.00
2023-05-14T17:58:15.492Z,100.00
2023-05-14T18:00:43.745Z,100.00
2023-05-14T18:03:11.476Z,100.00
2023-05-14T18:05:38.790Z,100.00
2023-05-14T18:08:05.810Z,100.00
2023-05-14T18:10:32.909Z,100.00
2023-05-14T18:12:59.858Z,100.00
2023-05-14T18:15:27.396Z,100.00
2023-05-14T18:17:54.716Z,100.00
2023-05-14T18:20:21.893Z,100.00
2023-05-14T18:22:50.624Z,100.00
2023-05-14T18:25:17.933Z,100.00
2023-05-14T18:27:45.534Z,100.00
2023-05-14T18:30:14.748Z,100.00
2023-05-14T18:32:44.150Z,100.00
2023-05-14T18:35:13.066Z,100.00
2023-05-14T18:37:40.947Z,100.00
2023-05-14T18:40:09.414Z,100.00
2023-05-14T18:42:36.359Z,100.00
2023-05-14T18:45:04.283Z,100.00
2023-05-14T18:47:34.608Z,100.00
2023-05-14T18:50:02.188Z,100.00
2023-05-14T18:52:32.405Z,100.00
2023-05-14T18:54:59.635Z,100.00
2023-05-14T18:57:29.734Z,100.00
2023-05-14T18:59:56.873Z,100.00
2023-05-14T19:02:24.003Z,100.00
2023-05-14T19:04:52.875Z,100.00
2023-05-14T19:07:21.130Z,100.00
2023-05-14T19:09:48.559Z,100.00
2023-05-14T19:12:15.509Z,100.00
2023-05-14T19:14:42.460Z,100.00
2023-05-14T19:17:09.429Z,100.00
2023-05-14T19:19:36.676Z,100.00
2023-05-14T19:22:03.807Z,100.00
2023-05-14T19:24:30.945Z,100.00
2023-05-14T19:26:57.969Z,100.00
2023-05-14T19:29:25.047Z,100.00
2023-05-14T19:31:52.115Z,100.00
2023-05-14T19:34:19.096Z,100.00
2023-05-14T19:36:46.249Z,100.00
2023-05-14T19:39:13.209Z,100.00
2023-05-14T19:41:43.004Z,100.00
2023-05-14T19:44:09.919Z,100.00
2023-05-14T19:46:37.114Z,100.00
2023-05-14T19:49:03.967Z,100.00
2023-05-14T19:51:31.116Z,100.00
2023-05-14T19:53:57.994Z,100.00
2023-05-14T19:56:27.014Z,100.00
2023-05-14T19:58:54.420Z,100.00
2023-05-14T20:01:21.653Z,100.00
2023-05-14T20:03:48.775Z,100.00
2023-05-14T20:06:17.529Z,100.00
2023-05-14T20:08:47.610Z,100.00
2023-05-14T20:11:15.701Z,100.00
2023-05-14T20:13:42.587Z,100.00
2023-05-14T20:16:09.622Z,100.00
2023-05-14T20:18:36.614Z,100.00
2023-05-14T20:21:03.896Z,100.00
2023-05-14T20:23:30.997Z,100.00
2023-05-14T20:25:58.135Z,100.00
2023-05-14T20:28:25.333Z,100.00
2023-05-14T20:30:52.508Z,100.00
2023-05-14T20:33:19.427Z,100.00
2023-05-14T20:35:46.424Z,100.00
2023-05-14T20:38:13.503Z,100.00
2023-05-14T20:40:40.461Z,100.00
2023-05-14T20:43:07.542Z,100.00
2023-05-14T20:45:34.418Z,100.00
2023-05-14T20:48:01.528Z,100.00
2023-05-14T20:50:28.546Z,100.00
2023-05-14T20:52:55.657Z,100.00
2023-05-14T20:55:23.197Z,100.00
2023-05-14T20:57:50.642Z,100.00
2023-05-14T21:00:18.168Z,100.00
2023-05-14T21:02:45.294Z,100.00
2023-05-14T21:05:13.938Z,100.00
2023-05-14T21:07:41.002Z,100.00
2023-05-14T21:10:11.115Z,100.00
2023-05-14T21:12:38.326Z,100.00
2023-05-14T21:15:05.732Z,100.00
2023-05-14T21:17:34.916Z,100.00
2023-05-14T21:20:02.196Z,100.00
2023-05-14T21:22:31.102Z,100.00
2023-05-14T21:24:58.073Z,100.00
2023-05-14T21:27:25.259Z,100.00
2023-05-14T21:29:52.372Z,100.00
2023-05-14T21:32:20.352Z,100.00
2023-05-14T21:34:47.493Z,100.00
2023-05-14T21:37:15.428Z,100.00
2023-05-14T21:39:42.548Z,100.00
2023-05-14T21:42:09.723Z,100.00
2023-05-14T21:44:37.256Z,100.00
2023-05-14T21:47:04.830Z,100.00
2023-05-14T21:49:31.839Z,100.00
2023-05-14T21:51:58.770Z,100.00
2023-05-14T21:54:25.714Z,100.00
2023-05-14T21:56:52.702Z,100.00
2023-05-14T21:59:19.912Z,100.00
2023-05-14T22:02:05.571Z,100.00
2023-05-14T22:04:34.101Z,100.00
2023-05-14T22:07:01.560Z,100.00
2023-05-14T22:09:29.075Z,100.00
2023-05-14T22:11:57.298Z,100.00
2023-05-14T22:14:26.507Z,100.00
2023-05-14T22:16:53.589Z,100.00
2023-05-14T22:19:20.576Z,100.00
2023-05-14T22:21:47.513Z,100.00
2023-05-14T22:24:14.376Z,100.00
2023-05-14T22:26:41.395Z,100.00
2023-05-14T22:29:08.288Z,100.00
2023-05-14T22:31:35.402Z,100.00
2023-05-14T22:34:02.398Z,100.00
2023-05-14T22:36:29.589Z,100.00
2023-05-14T22:38:56.531Z,100.00
2023-05-14T22:41:23.492Z,100.00
2023-05-14T22:43:50.848Z,100.00
2023-05-14T22:46:17.997Z,100.00
2023-05-14T22:48:45.227Z,100.00
2023-05-14T22:51:12.065Z,100.00
2023-05-14T22:53:39.088Z,100.00
2023-05-14T22:56:06.290Z,100.00
2023-05-14T22:58:33.305Z,100.00
2023-05-14T23:01:00.484Z,100.00
2023-05-14T23:03:27.740Z,100.00
2023-05-14T23:05:54.664Z,100.00
2023-05-14T23:08:21.637Z,100.00
2023-05-14T23:10:48.545Z,100.00
2023-05-14T23:13:15.516Z,100.00
2023-05-14T23:15:43.039Z,100.00
2023-05-14T23:18:10.366Z,100.00
2023-05-14T23:20:37.381Z,100.00
2023-05-14T23:23:05.172Z,100.00
2023-05-14T23:25:32.546Z,100.00
2023-05-14T23:27:59.854Z,100.00
2023-05-14T23:30:26.748Z,100.00
2023-05-14T23:32:53.605Z,100.00
2023-05-14T23:35:20.655Z,100.00
2023-05-14T23:37:49.477Z,100.00
2023-05-14T23:40:17.877Z,100.00
2023-05-14T23:42:44.905Z,100.00
2023-05-14T23:45:12.653Z,100.00
2023-05-14T23:47:40.520Z,100.00
2023-05-14T23:50:07.856Z,100.00
2023-05-14T23:52:34.781Z,100.00
2023-05-14T23:55:01.976Z,100.00
2023-05-14T23:57:31.560Z,100.00
2023-05-14T23:59:59.033Z,100.00
